sensor_id;sensor_type;location;lat;lon;timestamp;P1;durP1;ratioP1;P2;durP2;ratioP2
9052;SDS011;4561;47.450;7.516;2024-01-16T00:02:10;6.13;;;4.97;;
9052;SDS011;4561;47.450;7.516;2024-01-16T00:05:30;7.17;;;5.30;;
9052;SDS011;4561;47.450;7.516;2024-01-16T00:08:51;5.90;;;5.10;;
9052;SDS011;4561;47.450;7.516;2024-01-16T00:12:11;7.03;;;5.70;;
9052;SDS011;4561;47.450;7.516;2024-01-16T00:15:31;7.80;;;5.53;;
9052;SDS011;4561;47.450;7.516;2024-01-16T00:18:52;6.50;;;5.13;;
9052;SDS011;4561;47.450;7.516;2024-01-16T00:22:12;8.13;;;5.37;;
9052;SDS011;4561;47.450;7.516;2024-01-16T00:25:35;10.50;;;6.03;;
9052;SDS011;4561;47.450;7.516;2024-01-16T00:28:57;6.77;;;5.03;;
9052;SDS011;4561;47.450;7.516;2024-01-16T00:32:18;6.83;;;5.33;;
9052;SDS011;4561;47.450;7.516;2024-01-16T00:35:38;6.60;;;5.17;;
9052;SDS011;4561;47.450;7.516;2024-01-16T00:38:58;8.57;;;4.97;;
9052;SDS011;4561;47.450;7.516;2024-01-16T00:42:19;5.97;;;4.80;;
9052;SDS011;4561;47.450;7.516;2024-01-16T00:45:39;9.67;;;6.20;;
9052;SDS011;4561;47.450;7.516;2024-01-16T00:49:02;6.37;;;4.50;;
9052;SDS011;4561;47.450;7.516;2024-01-16T00:52:22;6.80;;;4.63;;
9052;SDS011;4561;47.450;7.516;2024-01-16T00:55:42;4.97;;;3.97;;
9052;SDS011;4561;47.450;7.516;2024-01-16T00:59:03;6.90;;;5.23;;
9052;SDS011;4561;47.450;7.516;2024-01-16T01:02:23;5.17;;;4.10;;
9052;SDS011;4561;47.450;7.516;2024-01-16T01:05:44;7.70;;;5.23;;
9052;SDS011;4561;47.450;7.516;2024-01-16T01:09:06;5.37;;;4.43;;
9052;SDS011;4561;47.450;7.516;2024-01-16T01:12:27;5.77;;;4.23;;
9052;SDS011;4561;47.450;7.516;2024-01-16T01:15:47;5.57;;;4.33;;
9052;SDS011;4561;47.450;7.516;2024-01-16T01:19:08;4.53;;;4.10;;
9052;SDS011;4561;47.450;7.516;2024-01-16T01:22:28;4.80;;;3.80;;
9052;SDS011;4561;47.450;7.516;2024-01-16T01:25:48;4.37;;;3.80;;
9052;SDS011;4561;47.450;7.516;2024-01-16T01:29:09;5.10;;;3.70;;
9052;SDS011;4561;47.450;7.516;2024-01-16T01:32:34;5.27;;;4.30;;
9052;SDS011;4561;47.450;7.516;2024-01-16T01:35:56;5.13;;;4.00;;
9052;SDS011;4561;47.450;7.516;2024-01-16T01:39:17;5.30;;;4.60;;
9052;SDS011;4561;47.450;7.516;2024-01-16T01:42:37;6.40;;;4.70;;
9052;SDS011;4561;47.450;7.516;2024-01-16T01:49:28;5.73;;;4.53;;
9052;SDS011;4561;47.450;7.516;2024-01-16T01:52:52;7.20;;;4.97;;
9052;SDS011;4561;47.450;7.516;2024-01-16T01:56:16;7.13;;;5.23;;
9052;SDS011;4561;47.450;7.516;2024-01-16T01:59:42;5.33;;;4.70;;
9052;SDS011;4561;47.450;7.516;2024-01-16T02:03:02;5.90;;;4.03;;
9052;SDS011;4561;47.450;7.516;2024-01-16T02:06:22;5.30;;;3.70;;
9052;SDS011;4561;47.450;7.516;2024-01-16T02:09:43;4.83;;;4.10;;
9052;SDS011;4561;47.450;7.516;2024-01-16T02:13:04;5.87;;;3.70;;
9052;SDS011;4561;47.450;7.516;2024-01-16T02:16:24;5.30;;;3.83;;
9052;SDS011;4561;47.450;7.516;2024-01-16T02:19:45;6.97;;;4.57;;
9052;SDS011;4561;47.450;7.516;2024-01-16T02:23:08;5.67;;;4.27;;
9052;SDS011;4561;47.450;7.516;2024-01-16T02:26:30;5.13;;;4.33;;
9052;SDS011;4561;47.450;7.516;2024-01-16T02:29:50;4.03;;;3.57;;
9052;SDS011;4561;47.450;7.516;2024-01-16T02:33:11;7.17;;;3.90;;
9052;SDS011;4561;47.450;7.516;2024-01-16T02:36:32;4.93;;;3.97;;
9052;SDS011;4561;47.450;7.516;2024-01-16T02:39:52;4.33;;;3.20;;
9052;SDS011;4561;47.450;7.516;2024-01-16T02:43:13;5.97;;;3.73;;
9052;SDS011;4561;47.450;7.516;2024-01-16T02:46:38;4.67;;;3.53;;
9052;SDS011;4561;47.450;7.516;2024-01-16T02:49:59;4.67;;;3.47;;
9052;SDS011;4561;47.450;7.516;2024-01-16T02:53:22;4.80;;;3.07;;
9052;SDS011;4561;47.450;7.516;2024-01-16T02:56:42;5.43;;;3.90;;
9052;SDS011;4561;47.450;7.516;2024-01-16T03:00:03;4.90;;;3.97;;
9052;SDS011;4561;47.450;7.516;2024-01-16T03:03:27;4.77;;;4.20;;
9052;SDS011;4561;47.450;7.516;2024-01-16T03:06:48;5.87;;;4.40;;
9052;SDS011;4561;47.450;7.516;2024-01-16T03:10:08;5.57;;;3.87;;
9052;SDS011;4561;47.450;7.516;2024-01-16T03:13:29;4.57;;;3.77;;
9052;SDS011;4561;47.450;7.516;2024-01-16T03:16:54;6.13;;;4.27;;
9052;SDS011;4561;47.450;7.516;2024-01-16T03:20:15;5.43;;;4.43;;
9052;SDS011;4561;47.450;7.516;2024-01-16T03:23:42;5.80;;;4.30;;
9052;SDS011;4561;47.450;7.516;2024-01-16T03:27:04;4.17;;;3.57;;
9052;SDS011;4561;47.450;7.516;2024-01-16T03:30:26;5.73;;;3.97;;
9052;SDS011;4561;47.450;7.516;2024-01-16T03:33:47;6.10;;;5.10;;
9052;SDS011;4561;47.450;7.516;2024-01-16T03:37:07;5.77;;;4.30;;
9052;SDS011;4561;47.450;7.516;2024-01-16T03:40:28;5.50;;;4.40;;
9052;SDS011;4561;47.450;7.516;2024-01-16T03:43:54;5.80;;;4.83;;
9052;SDS011;4561;47.450;7.516;2024-01-16T03:47:16;5.97;;;4.70;;
9052;SDS011;4561;47.450;7.516;2024-01-16T03:50:37;7.53;;;4.70;;
9052;SDS011;4561;47.450;7.516;2024-01-16T03:53:57;5.87;;;4.70;;
9052;SDS011;4561;47.450;7.516;2024-01-16T03:57:17;4.40;;;3.80;;
9052;SDS011;4561;47.450;7.516;2024-01-16T04:00:38;3.67;;;3.20;;
9052;SDS011;4561;47.450;7.516;2024-01-16T04:03:58;4.90;;;3.53;;
9052;SDS011;4561;47.450;7.516;2024-01-16T04:07:24;4.83;;;4.00;;
9052;SDS011;4561;47.450;7.516;2024-01-16T04:10:47;5.47;;;4.07;;
9052;SDS011;4561;47.450;7.516;2024-01-16T04:14:08;7.67;;;4.83;;
9052;SDS011;4561;47.450;7.516;2024-01-16T04:17:31;7.40;;;5.33;;
9052;SDS011;4561;47.450;7.516;2024-01-16T04:20:51;6.63;;;5.33;;
9052;SDS011;4561;47.450;7.516;2024-01-16T04:24:11;6.60;;;5.37;;
9052;SDS011;4561;47.450;7.516;2024-01-16T04:27:34;5.97;;;4.97;;
9052;SDS011;4561;47.450;7.516;2024-01-16T04:30:54;9.10;;;5.47;;
9052;SDS011;4561;47.450;7.516;2024-01-16T04:34:15;4.97;;;3.90;;
9052;SDS011;4561;47.450;7.516;2024-01-16T04:37:35;5.03;;;4.00;;
9052;SDS011;4561;47.450;7.516;2024-01-16T04:40:55;4.50;;;3.60;;
9052;SDS011;4561;47.450;7.516;2024-01-16T04:44:16;9.13;;;6.67;;
9052;SDS011;4561;47.450;7.516;2024-01-16T04:47:38;6.07;;;5.03;;
9052;SDS011;4561;47.450;7.516;2024-01-16T04:50:59;7.10;;;4.90;;
9052;SDS011;4561;47.450;7.516;2024-01-16T04:54:22;6.73;;;4.83;;
9052;SDS011;4561;47.450;7.516;2024-01-16T04:57:43;7.50;;;4.23;;
9052;SDS011;4561;47.450;7.516;2024-01-16T05:01:03;7.23;;;4.83;;
9052;SDS011;4561;47.450;7.516;2024-01-16T05:04:26;4.87;;;4.27;;
9052;SDS011;4561;47.450;7.516;2024-01-16T05:07:47;6.33;;;4.90;;
9052;SDS011;4561;47.450;7.516;2024-01-16T05:11:09;6.30;;;4.83;;
9052;SDS011;4561;47.450;7.516;2024-01-16T05:14:31;7.63;;;6.23;;
9052;SDS011;4561;47.450;7.516;2024-01-16T05:17:51;11.33;;;7.00;;
9052;SDS011;4561;47.450;7.516;2024-01-16T05:21:12;8.97;;;6.97;;
9052;SDS011;4561;47.450;7.516;2024-01-16T05:24:32;10.87;;;7.70;;
9052;SDS011;4561;47.450;7.516;2024-01-16T05:27:56;11.27;;;7.63;;
9052;SDS011;4561;47.450;7.516;2024-01-16T05:31:16;10.67;;;8.10;;
9052;SDS011;4561;47.450;7.516;2024-01-16T05:34:37;11.97;;;8.13;;
9052;SDS011;4561;47.450;7.516;2024-01-16T05:38:01;9.80;;;8.00;;
9052;SDS011;4561;47.450;7.516;2024-01-16T05:41:23;11.47;;;7.07;;
9052;SDS011;4561;47.450;7.516;2024-01-16T05:44:43;11.43;;;7.97;;
9052;SDS011;4561;47.450;7.516;2024-01-16T05:48:06;9.90;;;7.67;;
9052;SDS011;4561;47.450;7.516;2024-01-16T05:51:29;11.83;;;7.90;;
9052;SDS011;4561;47.450;7.516;2024-01-16T05:54:49;11.13;;;7.10;;
9052;SDS011;4561;47.450;7.516;2024-01-16T05:58:12;15.40;;;8.60;;
9052;SDS011;4561;47.450;7.516;2024-01-16T06:01:34;12.57;;;7.83;;
9052;SDS011;4561;47.450;7.516;2024-01-16T06:04:55;11.77;;;7.97;;
9052;SDS011;4561;47.450;7.516;2024-01-16T06:08:15;9.30;;;7.93;;
9052;SDS011;4561;47.450;7.516;2024-01-16T06:11:35;11.13;;;8.00;;
9052;SDS011;4561;47.450;7.516;2024-01-16T06:14:58;11.77;;;8.73;;
9052;SDS011;4561;47.450;7.516;2024-01-16T06:18:18;9.63;;;7.20;;
9052;SDS011;4561;47.450;7.516;2024-01-16T06:21:38;9.43;;;7.60;;
9052;SDS011;4561;47.450;7.516;2024-01-16T06:24:59;11.50;;;8.30;;
9052;SDS011;4561;47.450;7.516;2024-01-16T06:28:22;10.53;;;8.00;;
9052;SDS011;4561;47.450;7.516;2024-01-16T06:31:42;9.47;;;7.63;;
9052;SDS011;4561;47.450;7.516;2024-01-16T06:35:06;27.73;;;24.77;;
9052;SDS011;4561;47.450;7.516;2024-01-16T06:38:28;15.33;;;9.60;;
9052;SDS011;4561;47.450;7.516;2024-01-16T06:41:51;10.60;;;7.27;;
9052;SDS011;4561;47.450;7.516;2024-01-16T06:45:11;10.23;;;6.60;;
9052;SDS011;4561;47.450;7.516;2024-01-16T06:48:35;9.63;;;7.43;;
9052;SDS011;4561;47.450;7.516;2024-01-16T06:51:58;14.00;;;10.93;;
9052;SDS011;4561;47.450;7.516;2024-01-16T06:55:20;15.10;;;13.30;;
9052;SDS011;4561;47.450;7.516;2024-01-16T06:58:43;14.83;;;9.70;;
9052;SDS011;4561;47.450;7.516;2024-01-16T07:02:03;11.80;;;8.00;;
9052;SDS011;4561;47.450;7.516;2024-01-16T07:05:24;11.73;;;8.53;;
9052;SDS011;4561;47.450;7.516;2024-01-16T07:08:47;16.23;;;10.57;;
9052;SDS011;4561;47.450;7.516;2024-01-16T07:12:07;16.40;;;11.70;;
9052;SDS011;4561;47.450;7.516;2024-01-16T07:15:28;12.20;;;8.43;;
9052;SDS011;4561;47.450;7.516;2024-01-16T07:18:50;11.43;;;9.17;;
9052;SDS011;4561;47.450;7.516;2024-01-16T07:22:10;12.80;;;9.27;;
9052;SDS011;4561;47.450;7.516;2024-01-16T07:25:31;10.07;;;8.47;;
9052;SDS011;4561;47.450;7.516;2024-01-16T07:28:51;10.97;;;8.17;;
9052;SDS011;4561;47.450;7.516;2024-01-16T07:32:12;12.73;;;8.43;;
9052;SDS011;4561;47.450;7.516;2024-01-16T07:35:32;10.67;;;8.07;;
9052;SDS011;4561;47.450;7.516;2024-01-16T07:38:55;12.70;;;8.50;;
9052;SDS011;4561;47.450;7.516;2024-01-16T07:42:20;15.03;;;8.20;;
9052;SDS011;4561;47.450;7.516;2024-01-16T07:45:44;14.00;;;7.67;;
9052;SDS011;4561;47.450;7.516;2024-01-16T07:49:06;11.17;;;7.33;;
9052;SDS011;4561;47.450;7.516;2024-01-16T07:52:27;10.70;;;8.17;;
9052;SDS011;4561;47.450;7.516;2024-01-16T07:55:47;10.00;;;6.90;;
9052;SDS011;4561;47.450;7.516;2024-01-16T07:59:10;13.07;;;7.70;;
9052;SDS011;4561;47.450;7.516;2024-01-16T08:02:31;9.27;;;7.50;;
9052;SDS011;4561;47.450;7.516;2024-01-16T08:05:54;10.70;;;9.20;;
9052;SDS011;4561;47.450;7.516;2024-01-16T08:09:16;13.33;;;10.23;;
9052;SDS011;4561;47.450;7.516;2024-01-16T08:12:37;11.80;;;10.07;;
9052;SDS011;4561;47.450;7.516;2024-01-16T08:16:00;10.73;;;9.63;;
9052;SDS011;4561;47.450;7.516;2024-01-16T08:19:23;11.47;;;9.33;;
9052;SDS011;4561;47.450;7.516;2024-01-16T08:22:43;11.43;;;10.23;;
9052;SDS011;4561;47.450;7.516;2024-01-16T08:26:04;12.63;;;11.10;;
9052;SDS011;4561;47.450;7.516;2024-01-16T08:29:25;79.30;;;22.33;;
9052;SDS011;4561;47.450;7.516;2024-01-16T08:32:47;72.50;;;16.63;;
9052;SDS011;4561;47.450;7.516;2024-01-16T08:36:08;25.63;;;12.27;;
9052;SDS011;4561;47.450;7.516;2024-01-16T08:39:28;33.70;;;12.47;;
9052;SDS011;4561;47.450;7.516;2024-01-16T08:42:53;20.07;;;15.07;;
9052;SDS011;4561;47.450;7.516;2024-01-16T08:46:17;9.20;;;6.60;;
9052;SDS011;4561;47.450;7.516;2024-01-16T08:49:39;8.40;;;5.87;;
9052;SDS011;4561;47.450;7.516;2024-01-16T08:53:00;9.20;;;6.77;;
9052;SDS011;4561;47.450;7.516;2024-01-16T08:56:20;7.67;;;6.17;;
9052;SDS011;4561;47.450;7.516;2024-01-16T08:59:41;9.47;;;7.17;;
9052;SDS011;4561;47.450;7.516;2024-01-16T09:03:01;8.67;;;6.17;;
9052;SDS011;4561;47.450;7.516;2024-01-16T09:06:22;7.97;;;5.97;;
9052;SDS011;4561;47.450;7.516;2024-01-16T09:09:44;14.67;;;6.67;;
9052;SDS011;4561;47.450;7.516;2024-01-16T09:13:05;8.10;;;6.53;;
9052;SDS011;4561;47.450;7.516;2024-01-16T09:16:25;12.70;;;8.37;;
9052;SDS011;4561;47.450;7.516;2024-01-16T09:19:46;10.30;;;7.60;;
9052;SDS011;4561;47.450;7.516;2024-01-16T09:23:06;10.20;;;7.20;;
9052;SDS011;4561;47.450;7.516;2024-01-16T09:26:27;8.47;;;6.87;;
9052;SDS011;4561;47.450;7.516;2024-01-16T09:29:47;8.60;;;6.90;;
9052;SDS011;4561;47.450;7.516;2024-01-16T09:33:11;10.53;;;7.97;;
9052;SDS011;4561;47.450;7.516;2024-01-16T09:36:36;9.27;;;7.20;;
9052;SDS011;4561;47.450;7.516;2024-01-16T09:40:00;9.73;;;7.13;;
9052;SDS011;4561;47.450;7.516;2024-01-16T09:43:20;9.60;;;7.27;;
9052;SDS011;4561;47.450;7.516;2024-01-16T09:46:42;11.70;;;8.20;;
9052;SDS011;4561;47.450;7.516;2024-01-16T09:50:07;11.67;;;8.73;;
9052;SDS011;4561;47.450;7.516;2024-01-16T09:53:27;10.80;;;8.03;;
9052;SDS011;4561;47.450;7.516;2024-01-16T09:56:48;11.00;;;8.10;;
9052;SDS011;4561;47.450;7.516;2024-01-16T10:00:11;10.77;;;7.60;;
9052;SDS011;4561;47.450;7.516;2024-01-16T10:03:33;11.13;;;7.60;;
9052;SDS011;4561;47.450;7.516;2024-01-16T10:06:54;10.03;;;7.43;;
9052;SDS011;4561;47.450;7.516;2024-01-16T10:10:15;8.73;;;6.77;;
9052;SDS011;4561;47.450;7.516;2024-01-16T10:13:38;13.80;;;11.63;;
9052;SDS011;4561;47.450;7.516;2024-01-16T10:16:59;10.03;;;8.00;;
9052;SDS011;4561;47.450;7.516;2024-01-16T10:20:34;13.93;;;11.17;;
9052;SDS011;4561;47.450;7.516;2024-01-16T10:23:56;12.13;;;9.43;;
9052;SDS011;4561;47.450;7.516;2024-01-16T10:27:31;11.07;;;7.93;;
9052;SDS011;4561;47.450;7.516;2024-01-16T10:30:58;12.17;;;8.20;;
9052;SDS011;4561;47.450;7.516;2024-01-16T10:34:26;10.57;;;7.97;;
9052;SDS011;4561;47.450;7.516;2024-01-16T10:37:49;11.57;;;7.87;;
9052;SDS011;4561;47.450;7.516;2024-01-16T10:41:14;11.53;;;9.63;;
9052;SDS011;4561;47.450;7.516;2024-01-16T10:44:36;8.87;;;7.47;;
9052;SDS011;4561;47.450;7.516;2024-01-16T10:48:04;11.20;;;8.37;;
9052;SDS011;4561;47.450;7.516;2024-01-16T10:51:26;10.10;;;8.63;;
9052;SDS011;4561;47.450;7.516;2024-01-16T10:54:47;12.13;;;8.37;;
9052;SDS011;4561;47.450;7.516;2024-01-16T10:58:10;10.40;;;8.70;;
9052;SDS011;4561;47.450;7.516;2024-01-16T11:01:33;13.43;;;8.00;;
9052;SDS011;4561;47.450;7.516;2024-01-16T11:04:53;11.30;;;10.03;;
9052;SDS011;4561;47.450;7.516;2024-01-16T11:08:17;12.03;;;7.87;;
9052;SDS011;4561;47.450;7.516;2024-01-16T11:11:41;12.27;;;8.37;;
9052;SDS011;4561;47.450;7.516;2024-01-16T11:15:01;12.43;;;8.87;;
9052;SDS011;4561;47.450;7.516;2024-01-16T11:18:27;12.73;;;8.90;;
9052;SDS011;4561;47.450;7.516;2024-01-16T11:21:52;13.23;;;8.63;;
9052;SDS011;4561;47.450;7.516;2024-01-16T11:25:14;10.77;;;9.03;;
9052;SDS011;4561;47.450;7.516;2024-01-16T11:28:36;12.13;;;10.43;;
9052;SDS011;4561;47.450;7.516;2024-01-16T11:31:57;14.10;;;9.93;;
9052;SDS011;4561;47.450;7.516;2024-01-16T11:35:18;12.77;;;8.93;;
9052;SDS011;4561;47.450;7.516;2024-01-16T11:38:56;12.40;;;8.10;;
9052;SDS011;4561;47.450;7.516;2024-01-16T11:42:25;11.90;;;8.90;;
9052;SDS011;4561;47.450;7.516;2024-01-16T11:45:48;10.40;;;7.90;;
9052;SDS011;4561;47.450;7.516;2024-01-16T11:49:09;11.40;;;8.40;;
9052;SDS011;4561;47.450;7.516;2024-01-16T11:56:21;13.87;;;8.60;;
9052;SDS011;4561;47.450;7.516;2024-01-16T11:59:58;11.40;;;9.37;;
9052;SDS011;4561;47.450;7.516;2024-01-16T12:03:23;14.23;;;9.13;;
9052;SDS011;4561;47.450;7.516;2024-01-16T12:06:44;12.80;;;8.10;;
9052;SDS011;4561;47.450;7.516;2024-01-16T12:10:17;12.37;;;9.00;;
9052;SDS011;4561;47.450;7.516;2024-01-16T12:13:38;11.10;;;8.50;;
9052;SDS011;4561;47.450;7.516;2024-01-16T12:17:10;12.27;;;8.27;;
9052;SDS011;4561;47.450;7.516;2024-01-16T12:20:32;11.53;;;8.50;;
9052;SDS011;4561;47.450;7.516;2024-01-16T12:23:53;9.37;;;7.80;;
9052;SDS011;4561;47.450;7.516;2024-01-16T12:27:13;12.87;;;9.30;;
9052;SDS011;4561;47.450;7.516;2024-01-16T12:30:36;13.70;;;8.80;;
9052;SDS011;4561;47.450;7.516;2024-01-16T12:34:06;15.00;;;9.37;;
9052;SDS011;4561;47.450;7.516;2024-01-16T12:37:27;13.03;;;9.17;;
9052;SDS011;4561;47.450;7.516;2024-01-16T12:40:49;14.73;;;9.13;;
9052;SDS011;4561;47.450;7.516;2024-01-16T12:44:13;12.47;;;9.33;;
9052;SDS011;4561;47.450;7.516;2024-01-16T12:47:33;16.37;;;10.53;;
9052;SDS011;4561;47.450;7.516;2024-01-16T12:51:02;16.07;;;10.40;;
9052;SDS011;4561;47.450;7.516;2024-01-16T12:54:26;13.90;;;10.27;;
9052;SDS011;4561;47.450;7.516;2024-01-16T12:57:47;13.33;;;9.37;;
9052;SDS011;4561;47.450;7.516;2024-01-16T13:01:24;11.83;;;9.50;;
9052;SDS011;4561;47.450;7.516;2024-01-16T13:04:58;15.87;;;9.70;;
9052;SDS011;4561;47.450;7.516;2024-01-16T13:08:19;14.70;;;10.30;;
9052;SDS011;4561;47.450;7.516;2024-01-16T13:15:10;15.20;;;9.43;;
9052;SDS011;4561;47.450;7.516;2024-01-16T13:18:31;16.00;;;10.20;;
9052;SDS011;4561;47.450;7.516;2024-01-16T13:21:51;15.20;;;10.47;;
9052;SDS011;4561;47.450;7.516;2024-01-16T13:25:12;13.43;;;10.43;;
9052;SDS011;4561;47.450;7.516;2024-01-16T13:28:37;15.13;;;11.03;;
9052;SDS011;4561;47.450;7.516;2024-01-16T13:31:59;12.83;;;10.33;;
9052;SDS011;4561;47.450;7.516;2024-01-16T13:35:20;14.70;;;10.53;;
9052;SDS011;4561;47.450;7.516;2024-01-16T13:38:43;13.63;;;10.17;;
9052;SDS011;4561;47.450;7.516;2024-01-16T13:42:04;15.40;;;10.83;;
9052;SDS011;4561;47.450;7.516;2024-01-16T13:45:26;14.83;;;10.67;;
9052;SDS011;4561;47.450;7.516;2024-01-16T13:48:48;15.73;;;10.67;;
9052;SDS011;4561;47.450;7.516;2024-01-16T13:52:08;13.30;;;10.13;;
9052;SDS011;4561;47.450;7.516;2024-01-16T13:55:28;13.20;;;10.43;;
9052;SDS011;4561;47.450;7.516;2024-01-16T13:58:50;10.87;;;9.10;;
9052;SDS011;4561;47.450;7.516;2024-01-16T14:02:10;11.33;;;9.03;;
9052;SDS011;4561;47.450;7.516;2024-01-16T14:05:34;12.53;;;9.13;;
9052;SDS011;4561;47.450;7.516;2024-01-16T14:08:56;13.90;;;9.23;;
9052;SDS011;4561;47.450;7.516;2024-01-16T14:12:16;14.70;;;9.20;;
9052;SDS011;4561;47.450;7.516;2024-01-16T14:15:38;12.67;;;9.17;;
9052;SDS011;4561;47.450;7.516;2024-01-16T14:18:59;10.50;;;8.30;;
9052;SDS011;4561;47.450;7.516;2024-01-16T14:22:19;10.27;;;8.07;;
9052;SDS011;4561;47.450;7.516;2024-01-16T14:25:40;13.77;;;8.37;;
9052;SDS011;4561;47.450;7.516;2024-01-16T14:29:00;12.10;;;9.57;;
9052;SDS011;4561;47.450;7.516;2024-01-16T14:32:20;12.33;;;9.90;;
9052;SDS011;4561;47.450;7.516;2024-01-16T14:35:41;13.10;;;10.43;;
9052;SDS011;4561;47.450;7.516;2024-01-16T14:39:01;13.83;;;10.07;;
9052;SDS011;4561;47.450;7.516;2024-01-16T14:42:22;13.47;;;9.37;;
9052;SDS011;4561;47.450;7.516;2024-01-16T14:45:46;14.43;;;9.90;;
9052;SDS011;4561;47.450;7.516;2024-01-16T14:49:06;16.83;;;9.90;;
9052;SDS011;4561;47.450;7.516;2024-01-16T14:52:27;14.87;;;10.57;;
9052;SDS011;4561;47.450;7.516;2024-01-16T14:55:48;14.77;;;10.13;;
9052;SDS011;4561;47.450;7.516;2024-01-16T14:59:08;15.57;;;10.57;;
9052;SDS011;4561;47.450;7.516;2024-01-16T15:02:29;15.83;;;10.90;;
9052;SDS011;4561;47.450;7.516;2024-01-16T15:05:49;15.93;;;11.37;;
9052;SDS011;4561;47.450;7.516;2024-01-16T15:09:12;19.93;;;11.87;;
9052;SDS011;4561;47.450;7.516;2024-01-16T15:12:32;15.13;;;11.27;;
9052;SDS011;4561;47.450;7.516;2024-01-16T15:15:53;16.37;;;11.33;;
9052;SDS011;4561;47.450;7.516;2024-01-16T15:19:15;16.07;;;10.83;;
9052;SDS011;4561;47.450;7.516;2024-01-16T15:22:45;17.30;;;10.47;;
9052;SDS011;4561;47.450;7.516;2024-01-16T15:26:06;22.87;;;12.03;;
9052;SDS011;4561;47.450;7.516;2024-01-16T15:29:27;14.17;;;10.70;;
9052;SDS011;4561;47.450;7.516;2024-01-16T15:32:48;15.80;;;10.20;;
9052;SDS011;4561;47.450;7.516;2024-01-16T15:36:09;12.33;;;9.27;;
9052;SDS011;4561;47.450;7.516;2024-01-16T15:39:29;15.87;;;9.80;;
9052;SDS011;4561;47.450;7.516;2024-01-16T15:42:49;11.50;;;10.00;;
9052;SDS011;4561;47.450;7.516;2024-01-16T15:46:10;16.70;;;11.57;;
9052;SDS011;4561;47.450;7.516;2024-01-16T15:49:31;19.87;;;12.80;;
9052;SDS011;4561;47.450;7.516;2024-01-16T15:52:51;18.63;;;11.63;;
9052;SDS011;4561;47.450;7.516;2024-01-16T15:56:12;16.17;;;12.10;;
9052;SDS011;4561;47.450;7.516;2024-01-16T15:59:32;18.27;;;11.90;;
9052;SDS011;4561;47.450;7.516;2024-01-16T16:02:55;16.40;;;11.90;;
9052;SDS011;4561;47.450;7.516;2024-01-16T16:06:17;16.53;;;11.53;;
9052;SDS011;4561;47.450;7.516;2024-01-16T16:09:40;16.27;;;11.77;;
9052;SDS011;4561;47.450;7.516;2024-01-16T16:13:03;17.60;;;13.47;;
9052;SDS011;4561;47.450;7.516;2024-01-16T16:16:24;22.47;;;15.67;;
9052;SDS011;4561;47.450;7.516;2024-01-16T16:19:44;19.80;;;14.30;;
9052;SDS011;4561;47.450;7.516;2024-01-16T16:23:06;17.10;;;13.93;;
9052;SDS011;4561;47.450;7.516;2024-01-16T16:26:31;19.23;;;14.83;;
9052;SDS011;4561;47.450;7.516;2024-01-16T16:29:54;20.07;;;14.77;;
9052;SDS011;4561;47.450;7.516;2024-01-16T16:33:15;18.97;;;13.93;;
9052;SDS011;4561;47.450;7.516;2024-01-16T16:36:35;17.97;;;13.67;;
9052;SDS011;4561;47.450;7.516;2024-01-16T16:39:58;17.83;;;13.33;;
9052;SDS011;4561;47.450;7.516;2024-01-16T16:43:19;17.57;;;12.67;;
9052;SDS011;4561;47.450;7.516;2024-01-16T16:46:39;17.33;;;12.83;;
9052;SDS011;4561;47.450;7.516;2024-01-16T16:49:59;17.63;;;13.17;;
9052;SDS011;4561;47.450;7.516;2024-01-16T16:53:20;18.87;;;12.30;;
9052;SDS011;4561;47.450;7.516;2024-01-16T16:56:40;17.50;;;11.83;;
9052;SDS011;4561;47.450;7.516;2024-01-16T17:00:02;13.37;;;10.77;;
9052;SDS011;4561;47.450;7.516;2024-01-16T17:03:23;12.73;;;9.93;;
9052;SDS011;4561;47.450;7.516;2024-01-16T17:06:44;16.33;;;11.30;;
9052;SDS011;4561;47.450;7.516;2024-01-16T17:10:04;18.57;;;12.73;;
9052;SDS011;4561;47.450;7.516;2024-01-16T17:13:26;15.17;;;11.77;;
9052;SDS011;4561;47.450;7.516;2024-01-16T17:16:49;17.67;;;11.27;;
9052;SDS011;4561;47.450;7.516;2024-01-16T17:20:09;16.03;;;11.33;;
9052;SDS011;4561;47.450;7.516;2024-01-16T17:23:33;16.63;;;12.10;;
9052;SDS011;4561;47.450;7.516;2024-01-16T17:26:54;17.33;;;11.90;;
9052;SDS011;4561;47.450;7.516;2024-01-16T17:30:15;14.97;;;12.23;;
9052;SDS011;4561;47.450;7.516;2024-01-16T17:33:35;17.37;;;13.73;;
9052;SDS011;4561;47.450;7.516;2024-01-16T17:36:56;14.50;;;11.70;;
9052;SDS011;4561;47.450;7.516;2024-01-16T17:40:19;14.17;;;10.80;;
9052;SDS011;4561;47.450;7.516;2024-01-16T17:43:40;12.60;;;9.87;;
9052;SDS011;4561;47.450;7.516;2024-01-16T17:47:00;12.73;;;9.80;;
9052;SDS011;4561;47.450;7.516;2024-01-16T17:50:21;17.37;;;14.90;;
9052;SDS011;4561;47.450;7.516;2024-01-16T17:53:42;17.93;;;14.90;;
9052;SDS011;4561;47.450;7.516;2024-01-16T17:57:03;33.97;;;24.97;;
9052;SDS011;4561;47.450;7.516;2024-01-16T18:00:24;29.87;;;23.80;;
9052;SDS011;4561;47.450;7.516;2024-01-16T18:03:46;32.17;;;23.30;;
9052;SDS011;4561;47.450;7.516;2024-01-16T18:07:10;30.67;;;24.03;;
9052;SDS011;4561;47.450;7.516;2024-01-16T18:10:31;24.80;;;18.07;;
9052;SDS011;4561;47.450;7.516;2024-01-16T18:13:54;41.63;;;26.80;;
9052;SDS011;4561;47.450;7.516;2024-01-16T18:17:18;25.23;;;19.47;;
9052;SDS011;4561;47.450;7.516;2024-01-16T18:20:41;27.67;;;20.97;;
9052;SDS011;4561;47.450;7.516;2024-01-16T18:24:07;34.30;;;24.17;;
9052;SDS011;4561;47.450;7.516;2024-01-16T18:27:28;23.33;;;17.10;;
9052;SDS011;4561;47.450;7.516;2024-01-16T18:30:48;25.67;;;19.63;;
9052;SDS011;4561;47.450;7.516;2024-01-16T18:34:09;21.47;;;16.97;;
9052;SDS011;4561;47.450;7.516;2024-01-16T18:37:29;23.50;;;17.10;;
9052;SDS011;4561;47.450;7.516;2024-01-16T18:40:49;24.30;;;17.43;;
9052;SDS011;4561;47.450;7.516;2024-01-16T18:44:10;20.10;;;15.73;;
9052;SDS011;4561;47.450;7.516;2024-01-16T18:47:32;22.90;;;18.23;;
9052;SDS011;4561;47.450;7.516;2024-01-16T18:50:52;16.80;;;11.97;;
9052;SDS011;4561;47.450;7.516;2024-01-16T18:54:14;12.80;;;8.63;;
9052;SDS011;4561;47.450;7.516;2024-01-16T18:57:40;11.47;;;8.83;;
9052;SDS011;4561;47.450;7.516;2024-01-16T19:01:01;14.33;;;11.13;;
9052;SDS011;4561;47.450;7.516;2024-01-16T19:04:25;10.60;;;9.50;;
9052;SDS011;4561;47.450;7.516;2024-01-16T19:07:45;21.10;;;15.60;;
9052;SDS011;4561;47.450;7.516;2024-01-16T19:11:09;22.40;;;14.63;;
9052;SDS011;4561;47.450;7.516;2024-01-16T19:14:30;19.80;;;15.83;;
9052;SDS011;4561;47.450;7.516;2024-01-16T19:17:50;25.27;;;18.07;;
9052;SDS011;4561;47.450;7.516;2024-01-16T19:21:14;26.10;;;18.77;;
9052;SDS011;4561;47.450;7.516;2024-01-16T19:24:36;20.47;;;15.50;;
9052;SDS011;4561;47.450;7.516;2024-01-16T19:27:57;13.47;;;10.37;;
9052;SDS011;4561;47.450;7.516;2024-01-16T19:31:20;14.20;;;9.63;;
9052;SDS011;4561;47.450;7.516;2024-01-16T19:34:40;11.67;;;9.10;;
9052;SDS011;4561;47.450;7.516;2024-01-16T19:38:01;18.07;;;13.97;;
9052;SDS011;4561;47.450;7.516;2024-01-16T19:41:21;23.50;;;17.87;;
9052;SDS011;4561;47.450;7.516;2024-01-16T19:44:41;24.60;;;18.47;;
9052;SDS011;4561;47.450;7.516;2024-01-16T19:48:02;28.20;;;18.97;;
9052;SDS011;4561;47.450;7.516;2024-01-16T19:51:25;29.73;;;22.80;;
9052;SDS011;4561;47.450;7.516;2024-01-16T19:54:46;25.23;;;18.63;;
9052;SDS011;4561;47.450;7.516;2024-01-16T19:58:09;22.27;;;17.83;;
9052;SDS011;4561;47.450;7.516;2024-01-16T20:01:32;24.30;;;17.40;;
9052;SDS011;4561;47.450;7.516;2024-01-16T20:04:54;17.07;;;14.37;;
9052;SDS011;4561;47.450;7.516;2024-01-16T20:08:15;68.30;;;41.93;;
9052;SDS011;4561;47.450;7.516;2024-01-16T20:11:40;70.13;;;43.90;;
9052;SDS011;4561;47.450;7.516;2024-01-16T20:15:00;73.23;;;44.93;;
9052;SDS011;4561;47.450;7.516;2024-01-16T20:18:20;67.87;;;40.97;;
9052;SDS011;4561;47.450;7.516;2024-01-16T20:21:43;89.40;;;48.97;;
9052;SDS011;4561;47.450;7.516;2024-01-16T20:25:05;90.37;;;53.07;;
9052;SDS011;4561;47.450;7.516;2024-01-16T20:28:26;30.53;;;21.30;;
9052;SDS011;4561;47.450;7.516;2024-01-16T20:31:49;18.43;;;13.97;;
9052;SDS011;4561;47.450;7.516;2024-01-16T20:35:10;15.13;;;12.20;;
9052;SDS011;4561;47.450;7.516;2024-01-16T20:38:33;14.30;;;11.17;;
9052;SDS011;4561;47.450;7.516;2024-01-16T20:41:53;14.07;;;11.10;;
9052;SDS011;4561;47.450;7.516;2024-01-16T20:45:17;13.93;;;10.77;;